Time;durP1;ratioP1;P1;durP2;ratioP2;P2;SDS_P1;SDS_P2;PMS_P1;PMS_P2;Temp;Humidity;BMP_temperature;BMP_pressure;BME280_temperature;BME280_humidity;BME280_pressure;Samples;Min_cycle;Max_cycle;Signal;HPM_P1;HPM_P2
2022/12/15 00:38:43;;;;;;;97.80;27.17;;;;;;;;;;4783081;29;20071;-39
2022/12/15 00:41:11;;;;;;;73.18;26.63;;;;;;;;;;4784066;29;20047;-39
2022/12/15 00:43:37;;;;;;;62.45;24.30;;;;;;;;;;4783611;29;20048;-39
2022/12/15 00:48:49;;;;;;;96.00;28.23;;;;;;;;;;4779708;29;20051;-39
2022/12/15 00:51:16;;;;;;;72.25;23.92;;;;;;;;;;4783335;29;20054;-39
2022/12/15 01:21:19;;;;;;;86.95;25.27;;;;;;;;;;4786204;29;20075;-40
2022/12/15 01:23:50;;;;;;;90.25;27.55;;;;;;;;;;4786599;29;20497;-43
2022/12/15 01:26:17;;;;;;;82.03;25.63;;;;;;;;;;4787622;29;20134;-39
2022/12/15 01:28:43;;;;;;;74.95;24.65;;;;;;;;;;4784018;29;20688;-44
2022/12/15 01:31:10;;;;;;;77.38;26.52;;;;;;;;;;4786179;29;20079;-40
2022/12/15 01:33:38;;;;;;;85.43;28.40;;;;;;;;;;4786972;29;20126;-49
2022/12/15 01:36:05;;;;;;;84.18;25.30;;;;;;;;;;4786683;29;20066;-40
2022/12/15 01:38:32;;;;;;;65.70;25.83;;;;;;;;;;4787274;30;20035;-40
2022/12/15 01:41:03;;;;;;;72.38;24.58;;;;;;;;;;4786416;29;20062;-41
2022/12/15 01:43:34;;;;;;;90.78;26.48;;;;;;;;;;4782489;29;20043;-39
2022/12/15 01:46:05;;;;;;;69.55;24.42;;;;;;;;;;4786604;29;20051;-45
2022/12/15 01:48:34;;;;;;;98.03;27.58;;;;;;;;;;4784694;29;20048;-40
2022/12/15 01:51:21;;;;;;;74.18;24.77;;;;;;;;;;4786194;29;20053;-39
2022/12/15 01:53:48;;;;;;;71.53;23.02;;;;;;;;;;4773839;29;20120;-43
2022/12/15 01:56:16;;;;;;;71.20;26.02;;;;;;;;;;4787396;29;20579;-42
2022/12/15 01:58:44;;;;;;;71.60;23.77;;;;;;;;;;4783381;29;20052;-40
2022/12/15 02:01:11;;;;;;;79.68;27.10;;;;;;;;;;4785953;29;20043;-40
2022/12/15 02:03:38;;;;;;;75.68;26.25;;;;;;;;;;4786383;29;20054;-47
2022/12/15 02:06:05;;;;;;;79.85;24.30;;;;;;;;;;4785619;29;20090;-40
2022/12/15 02:08:32;;;;;;;67.80;24.23;;;;;;;;;;4786133;30;20051;-40
2022/12/15 02:11:04;;;;;;;71.68;24.02;;;;;;;;;;4786316;29;20051;-42
2022/12/15 02:13:51;;;;;;;91.88;26.95;;;;;;;;;;4781678;29;20123;-43
2022/12/15 02:16:24;;;;;;;63.88;23.77;;;;;;;;;;4712005;30;20502;-40
2022/12/15 02:19:10;;;;;;;104.15;25.67;;;;;;;;;;4711822;30;20084;-43
2022/12/15 02:21:57;;;;;;;80.53;25.08;;;;;;;;;;4711753;30;20064;-40
2022/12/15 02:24:23;;;;;;;88.35;25.48;;;;;;;;;;4711199;30;20080;-44
2022/12/15 02:27:08;;;;;;;76.53;25.85;;;;;;;;;;4712676;30;20060;-41
2022/12/15 02:29:39;;;;;;;65.90;24.10;;;;;;;;;;4715589;30;20503;-40
2022/12/15 02:32:08;;;;;;;66.05;24.02;;;;;;;;;;4713225;30;20282;-41
2022/12/15 02:34:42;;;;;;;75.22;25.10;;;;;;;;;;4713074;30;20534;-40
2022/12/15 02:37:29;;;;;;;77.68;25.67;;;;;;;;;;4712344;30;20056;-40
2022/12/15 02:39:56;;;;;;;66.68;25.50;;;;;;;;;;4711139;30;20061;-39
2022/12/15 02:42:23;;;;;;;90.10;26.00;;;;;;;;;;4712428;30;20161;-43
2022/12/15 02:44:56;;;;;;;86.72;25.55;;;;;;;;;;4715238;30;20053;-39
2022/12/15 02:47:26;;;;;;;74.82;23.35;;;;;;;;;;4711329;30;20123;-40
2022/12/15 02:50:12;;;;;;;66.93;23.35;;;;;;;;;;4711422;30;20060;-45
2022/12/15 02:52:59;;;;;;;72.97;25.80;;;;;;;;;;4714082;30;20426;-43
2022/12/15 02:55:26;;;;;;;65.43;24.33;;;;;;;;;;4729563;30;20049;-46
2022/12/15 02:57:52;;;;;;;69.75;23.45;;;;;;;;;;4714674;30;20541;-39
2022/12/15 03:00:19;;;;;;;81.93;25.25;;;;;;;;;;4729600;30;20052;-39
2022/12/15 03:02:53;;;;;;;80.75;25.27;;;;;;;;;;4730193;30;20105;-39
2022/12/15 03:05:20;;;;;;;64.35;24.52;;;;;;;;;;4729918;30;20059;-40
2022/12/15 03:07:51;;;;;;;65.25;25.25;;;;;;;;;;4729571;30;20063;-40
2022/12/15 03:10:18;;;;;;;88.95;28.40;;;;;;;;;;4726988;30;20095;-39
2022/12/15 03:12:45;;;;;;;93.20;30.45;;;;;;;;;;4728814;30;20053;-41
2022/12/15 03:15:11;;;;;;;83.50;29.90;;;;;;;;;;4728656;30;20154;-39
2022/12/15 03:17:38;;;;;;;69.85;27.73;;;;;;;;;;4715289;30;20576;-39
2022/12/15 03:20:05;;;;;;;84.82;29.00;;;;;;;;;;4728444;30;20056;-40
2022/12/15 03:22:31;;;;;;;89.50;33.35;;;;;;;;;;4728688;30;20056;-43
2022/12/15 03:24:58;;;;;;;108.55;36.03;;;;;;;;;;4729255;30;20069;-40
2022/12/15 03:27:24;;;;;;;81.75;32.03;;;;;;;;;;4729220;30;20131;-40
2022/12/15 03:29:51;;;;;;;108.80;32.67;;;;;;;;;;4756693;29;20072;-39
2022/12/15 03:32:17;;;;;;;99.63;34.28;;;;;;;;;;4785553;29;20511;-39
2022/12/15 03:34:44;;;;;;;106.78;36.13;;;;;;;;;;4784441;29;20134;-39
2022/12/15 03:37:10;;;;;;;90.38;32.65;;;;;;;;;;4783760;29;20136;-40
2022/12/15 03:39:37;;;;;;;106.85;36.25;;;;;;;;;;4786060;29;20094;-39
2022/12/15 03:42:04;;;;;;;143.20;46.65;;;;;;;;;;4784108;29;20092;-40
2022/12/15 03:44:30;;;;;;;131.25;44.90;;;;;;;;;;4798113;29;20515;-39
2022/12/15 03:46:56;;;;;;;103.35;36.10;;;;;;;;;;4783759;29;20051;-39
2022/12/15 03:49:28;;;;;;;89.90;31.90;;;;;;;;;;4783558;29;20039;-39
2022/12/15 03:51:55;;;;;;;74.90;29.52;;;;;;;;;;4784099;29;20051;-40
2022/12/15 03:54:21;;;;;;;90.28;31.15;;;;;;;;;;4785023;29;20066;-39
2022/12/15 03:56:48;;;;;;;92.55;31.58;;;;;;;;;;4784643;29;20489;-39
2022/12/15 03:59:15;;;;;;;90.80;31.23;;;;;;;;;;4785781;29;20043;-45
2022/12/15 04:01:44;;;;;;;83.65;32.35;;;;;;;;;;4783937;29;20143;-41
2022/12/15 04:04:11;;;;;;;98.25;32.20;;;;;;;;;;4783527;29;20054;-39
2022/12/15 04:06:37;;;;;;;85.72;32.38;;;;;;;;;;4767861;30;20473;-39
2022/12/15 04:09:04;;;;;;;92.60;32.97;;;;;;;;;;4784101;29;20063;-44
2022/12/15 04:11:30;;;;;;;83.50;34.17;;;;;;;;;;4784770;30;20052;-40
2022/12/15 04:13:57;;;;;;;96.05;34.90;;;;;;;;;;4783886;29;20061;-41
2022/12/15 04:16:23;;;;;;;99.90;37.25;;;;;;;;;;4785957;29;20066;-39
2022/12/15 04:20:07;;;;;;;102.22;35.95;;;;;;;;;;4782902;29;20130;-39
2022/12/15 04:21:36;;;;;;;90.70;37.25;;;;;;;;;;4781431;29;20062;-40
2022/12/15 05:32:53;;;;;;;190.15;38.55;;;;;;;;;;4781422;29;20052;-41
2022/12/15 05:35:19;;;;;;;102.25;33.63;;;;;;;;;;4783248;29;20055;-40
2022/12/15 05:37:46;;;;;;;97.97;38.50;;;;;;;;;;4783028;29;20104;-40
2022/12/15 05:40:12;;;;;;;105.63;38.00;;;;;;;;;;4782500;29;20047;-45
2022/12/15 05:42:39;;;;;;;111.07;40.33;;;;;;;;;;4784554;29;20120;-40
2022/12/15 05:45:05;;;;;;;112.88;38.75;;;;;;;;;;4783104;29;20053;-43
2022/12/15 05:47:32;;;;;;;119.72;40.03;;;;;;;;;;4784289;30;20055;-42
2022/12/15 05:49:58;;;;;;;107.85;39.05;;;;;;;;;;4782158;29;20051;-40
2022/12/15 05:52:25;;;;;;;102.35;38.67;;;;;;;;;;4783631;29;20653;-42
2022/12/15 05:54:51;;;;;;;125.88;40.70;;;;;;;;;;4782902;29;20051;-40
2022/12/15 05:57:18;;;;;;;115.82;40.10;;;;;;;;;;4783521;29;20058;-41
2022/12/15 05:59:44;;;;;;;112.55;38.95;;;;;;;;;;4783412;29;20466;-52
2022/12/15 06:02:11;;;;;;;110.30;39.47;;;;;;;;;;4785221;29;20051;-39
2022/12/15 06:04:37;;;;;;;114.25;39.42;;;;;;;;;;4786322;29;20051;-39
2022/12/15 06:07:04;;;;;;;93.22;35.85;;;;;;;;;;4785530;29;20508;-42
2022/12/15 06:09:30;;;;;;;102.40;38.10;;;;;;;;;;4786578;29;20447;-40
2022/12/15 06:11:57;;;;;;;115.75;39.15;;;;;;;;;;4786519;29;20680;-40
2022/12/15 06:14:23;;;;;;;107.30;36.72;;;;;;;;;;4790841;29;20051;-40
2022/12/15 06:16:50;;;;;;;112.45;37.92;;;;;;;;;;4791838;29;20047;-44
2022/12/15 06:19:18;;;;;;;118.30;38.90;;;;;;;;;;4792026;29;20062;-38
2022/12/15 06:21:44;;;;;;;107.38;38.70;;;;;;;;;;4793289;29;20054;-39
2022/12/15 06:24:10;;;;;;;108.88;39.08;;;;;;;;;;4786330;29;20697;-41
2022/12/15 06:26:38;;;;;;;101.85;38.30;;;;;;;;;;4786841;30;20047;-39
2022/12/15 06:29:06;;;;;;;114.60;41.13;;;;;;;;;;4785274;29;20058;-40
2022/12/15 06:31:33;;;;;;;117.40;40.50;;;;;;;;;;4771970;30;20067;-39
2022/12/15 06:34:02;;;;;;;107.90;41.30;;;;;;;;;;4794262;29;20115;-39
2022/12/15 06:36:29;;;;;;;119.07;41.10;;;;;;;;;;4794048;29;20047;-41
2022/12/15 06:39:00;;;;;;;124.80;39.63;;;;;;;;;;4792834;29;20540;-41
2022/12/15 06:41:29;;;;;;;94.15;37.03;;;;;;;;;;4787538;29;20464;-40
2022/12/15 06:43:56;;;;;;;95.32;35.47;;;;;;;;;;4785596;29;20485;-47
2022/12/15 06:46:23;;;;;;;103.28;36.55;;;;;;;;;;4785330;29;20050;-42
2022/12/15 06:48:50;;;;;;;128.15;39.80;;;;;;;;;;4785574;29;20047;-41
2022/12/15 06:51:16;;;;;;;98.38;37.10;;;;;;;;;;4786006;29;20043;-44
2022/12/15 06:53:51;;;;;;;103.72;35.50;;;;;;;;;;4782899;30;20474;-43
2022/12/15 06:56:29;;;;;;;113.15;38.90;;;;;;;;;;4770210;30;20043;-40
2022/12/15 06:59:00;;;;;;;112.80;38.22;;;;;;;;;;4784358;29;20057;-42
2022/12/15 07:01:27;;;;;;;123.57;43.10;;;;;;;;;;4788320;29;20104;-45
2022/12/15 07:03:54;;;;;;;120.93;39.83;;;;;;;;;;4787358;29;20047;-41
2022/12/15 07:06:21;;;;;;;126.65;42.75;;;;;;;;;;4799021;29;20108;-40
2022/12/15 07:08:51;;;;;;;153.75;47.75;;;;;;;;;;4783816;29;20556;-40
2022/12/15 07:11:18;;;;;;;155.27;47.60;;;;;;;;;;4783706;29;20573;-41
2022/12/15 07:13:47;;;;;;;132.60;40.92;;;;;;;;;;4784710;29;20058;-41
2022/12/15 07:16:14;;;;;;;122.40;39.42;;;;;;;;;;4785299;29;20059;-42
2022/12/15 07:18:41;;;;;;;120.85;38.85;;;;;;;;;;4785418;29;20118;-40
2022/12/15 07:21:08;;;;;;;124.57;40.67;;;;;;;;;;4784997;29;20043;-42
2022/12/15 07:23:35;;;;;;;109.65;36.05;;;;;;;;;;4785925;30;20619;-40
2022/12/15 07:26:19;;;;;;;130.52;40.65;;;;;;;;;;4786506;29;20497;-40
2022/12/15 07:28:45;;;;;;;115.00;40.67;;;;;;;;;;4785009;29;20058;-42
2022/12/15 07:31:12;;;;;;;97.00;35.55;;;;;;;;;;4784989;29;20052;-39
2022/12/15 07:33:38;;;;;;;94.82;35.67;;;;;;;;;;4785260;29;20062;-42
2022/12/15 07:36:07;;;;;;;104.22;36.17;;;;;;;;;;4783542;29;20055;-41
2022/12/15 07:38:34;;;;;;;90.63;34.22;;;;;;;;;;4799627;29;20039;-40
2022/12/15 07:41:01;;;;;;;104.75;36.72;;;;;;;;;;4784401;29;20059;-42
2022/12/15 07:43:29;;;;;;;107.85;36.58;;;;;;;;;;4784104;29;20043;-39
2022/12/15 07:45:57;;;;;;;118.43;39.08;;;;;;;;;;4784043;29;20054;-43
2022/12/15 07:48:24;;;;;;;106.13;35.80;;;;;;;;;;4786346;29;20114;-42
2022/12/15 07:50:55;;;;;;;111.05;38.97;;;;;;;;;;4784634;29;20051;-41
2022/12/15 07:53:32;;;;;;;98.13;38.35;;;;;;;;;;4784234;30;20049;-45
2022/12/15 07:56:00;;;;;;;94.63;37.05;;;;;;;;;;4784660;29;20051;-41
2022/12/15 07:58:38;;;;;;;105.55;39.42;;;;;;;;;;4791237;29;20051;-40
2022/12/15 08:01:06;;;;;;;121.43;40.05;;;;;;;;;;4793032;29;20381;-40
2022/12/15 08:03:33;;;;;;;96.10;37.60;;;;;;;;;;4791368;29;20500;-43
2022/12/15 08:06:04;;;;;;;115.07;38.08;;;;;;;;;;4792966;29;20043;-39
2022/12/15 08:08:31;;;;;;;103.45;37.28;;;;;;;;;;4790556;29;20051;-39
2022/12/15 08:11:02;;;;;;;103.80;39.67;;;;;;;;;;4789518;29;20389;-40
2022/12/15 08:13:29;;;;;;;108.90;38.58;;;;;;;;;;4789949;29;20166;-39
2022/12/15 08:16:15;;;;;;;111.95;40.53;;;;;;;;;;4791286;29;20047;-40
2022/12/15 08:18:42;;;;;;;108.30;39.78;;;;;;;;;;4789349;29;20604;-39
2022/12/15 08:21:09;;;;;;;118.13;42.80;;;;;;;;;;4793258;29;20045;-39
2022/12/15 08:23:36;;;;;;;99.88;38.88;;;;;;;;;;4794142;29;20050;-42
2022/12/15 08:26:03;;;;;;;102.82;41.22;;;;;;;;;;4790275;29;20043;-40
2022/12/15 08:28:31;;;;;;;138.38;44.17;;;;;;;;;;4788268;29;20047;-40
2022/12/15 08:31:01;;;;;;;119.63;44.05;;;;;;;;;;4784114;29;20593;-39
2022/12/15 08:33:28;;;;;;;127.13;42.67;;;;;;;;;;4784085;29;20066;-41
2022/12/15 08:35:59;;;;;;;123.03;41.85;;;;;;;;;;4789012;29;20058;-40
2022/12/15 08:38:25;;;;;;;126.35;41.92;;;;;;;;;;4784921;29;20047;-40
2022/12/15 08:40:51;;;;;;;109.80;38.60;;;;;;;;;;4786037;29;20513;-40
2022/12/15 08:43:18;;;;;;;134.35;41.60;;;;;;;;;;4785565;29;20753;-41
2022/12/15 08:45:45;;;;;;;116.50;41.63;;;;;;;;;;4787118;29;20066;-41
2022/12/15 08:48:11;;;;;;;113.65;41.10;;;;;;;;;;4786070;29;20428;-40
2022/12/15 08:50:41;;;;;;;127.32;50.47;;;;;;;;;;4786699;29;20039;-41
2022/12/15 08:53:08;;;;;;;102.57;40.72;;;;;;;;;;4780097;29;20047;-41
2022/12/15 08:55:55;;;;;;;113.68;42.95;;;;;;;;;;4783206;29;20058;-41
2022/12/15 08:58:21;;;;;;;114.10;39.80;;;;;;;;;;4780829;29;20055;-42
2022/12/15 09:00:48;;;;;;;108.15;42.53;;;;;;;;;;4773230;30;20035;-41
2022/12/15 09:03:14;;;;;;;112.38;40.13;;;;;;;;;;4782865;29;20051;-40
2022/12/15 09:05:41;;;;;;;105.07;41.10;;;;;;;;;;4783705;30;20051;-40
2022/12/15 09:08:07;;;;;;;96.03;39.20;;;;;;;;;;4782014;29;20063;-40
2022/12/15 09:10:33;;;;;;;95.78;35.88;;;;;;;;;;4783001;29;20047;-41
2022/12/15 09:13:00;;;;;;;130.68;40.75;;;;;;;;;;4773137;30;20051;-41
2022/12/15 09:15:27;;;;;;;133.45;49.20;;;;;;;;;;4782244;29;20043;-40
2022/12/15 09:18:13;;;;;;;111.28;39.47;;;;;;;;;;4782853;29;20039;-43
2022/12/15 09:20:40;;;;;;;115.00;41.63;;;;;;;;;;4783227;29;20066;-39
2022/12/15 09:23:06;;;;;;;106.63;37.10;;;;;;;;;;4781439;29;20066;-40
2022/12/15 09:25:33;;;;;;;94.97;35.95;;;;;;;;;;4782707;29;20081;-40
2022/12/15 09:27:59;;;;;;;118.63;37.35;;;;;;;;;;4781845;29;20059;-41
2022/12/15 09:30:26;;;;;;;109.57;37.55;;;;;;;;;;4782477;29;20038;-43
2022/12/15 09:32:52;;;;;;;144.55;44.90;;;;;;;;;;4781962;29;20446;-40
2022/12/15 09:35:19;;;;;;;107.90;39.25;;;;;;;;;;4785267;29;20082;-40
2022/12/15 09:37:45;;;;;;;126.22;43.75;;;;;;;;;;4785339;29;20526;-43
2022/12/15 09:40:17;;;;;;;105.70;37.72;;;;;;;;;;4784608;29;20409;-40
2022/12/15 09:42:49;;;;;;;96.53;33.33;;;;;;;;;;4785576;29;20064;-42
2022/12/15 09:45:36;;;;;;;85.38;31.73;;;;;;;;;;4785610;29;20047;-40
2022/12/15 09:48:05;;;;;;;98.78;34.97;;;;;;;;;;4785612;29;20043;-42
2022/12/15 09:50:37;;;;;;;83.95;28.33;;;;;;;;;;4784651;30;20043;-46
2022/12/15 09:53:05;;;;;;;108.28;31.60;;;;;;;;;;4785394;29;20051;-40
2022/12/15 09:55:55;;;;;;;95.35;31.45;;;;;;;;;;4785331;29;20047;-40
2022/12/15 09:58:40;;;;;;;95.90;35.20;;;;;;;;;;4787420;29;20043;-40
2022/12/15 10:01:07;;;;;;;107.72;35.08;;;;;;;;;;4785965;29;20054;-40
2022/12/15 10:03:34;;;;;;;82.75;30.40;;;;;;;;;;4785330;29;20046;-40
2022/12/15 10:06:04;;;;;;;85.93;27.17;;;;;;;;;;4785122;29;20074;-46
2022/12/15 10:08:52;;;;;;;79.57;24.95;;;;;;;;;;4790009;29;20060;-40
2022/12/15 10:11:25;;;;;;;94.75;29.80;;;;;;;;;;4785066;29;20051;-42
2022/12/15 10:13:57;;;;;;;76.13;24.95;;;;;;;;;;4785519;29;20053;-44
2022/12/15 10:16:27;;;;;;;108.90;34.30;;;;;;;;;;4785142;29;20073;-40
2022/12/15 10:18:54;;;;;;;91.03;28.42;;;;;;;;;;4785728;29;20047;-41
2022/12/15 10:21:27;;;;;;;79.30;27.10;;;;;;;;;;4786230;29;20047;-40
2022/12/15 10:23:57;;;;;;;92.75;28.98;;;;;;;;;;4785775;29;20051;-41
2022/12/15 10:26:27;;;;;;;92.90;29.48;;;;;;;;;;4786863;29;20046;-40
2022/12/15 10:28:53;;;;;;;82.32;28.45;;;;;;;;;;4785191;29;20047;-40
2022/12/15 10:31:25;;;;;;;87.07;27.55;;;;;;;;;;4785307;29;20504;-40
2022/12/15 10:34:08;;;;;;;80.20;29.88;;;;;;;;;;4785424;29;20043;-44
2022/12/15 10:36:34;;;;;;;94.65;28.13;;;;;;;;;;4784601;29;20182;-40
2022/12/15 10:39:01;;;;;;;90.70;27.17;;;;;;;;;;4785060;29;20583;-40
2022/12/15 10:41:30;;;;;;;89.00;29.00;;;;;;;;;;4785835;29;20130;-44
2022/12/15 10:43:57;;;;;;;93.22;30.63;;;;;;;;;;4785217;29;20051;-41
2022/12/15 10:46:24;;;;;;;90.00;29.85;;;;;;;;;;4784728;29;20089;-40
2022/12/15 10:48:54;;;;;;;90.43;31.17;;;;;;;;;;4784861;29;20467;-46
2022/12/15 10:51:32;;;;;;;96.35;31.83;;;;;;;;;;4783169;29;20059;-41
2022/12/15 10:54:11;;;;;;;94.13;28.38;;;;;;;;;;4786319;29;20134;-41
2022/12/15 10:56:47;;;;;;;101.28;30.48;;;;;;;;;;4784148;30;20166;-40
2022/12/15 10:59:21;;;;;;;74.60;23.48;;;;;;;;;;4784970;29;20162;-40
2022/12/15 11:01:48;;;;;;;68.55;24.23;;;;;;;;;;4785195;29;20051;-40
2022/12/15 11:04:32;;;;;;;73.18;22.38;;;;;;;;;;4784467;29;20055;-39
2022/12/15 11:07:00;;;;;;;72.85;21.65;;;;;;;;;;4781980;29;20054;-39
2022/12/15 11:09:34;;;;;;;66.05;21.38;;;;;;;;;;4785151;29;20540;-39
2022/12/15 11:15:00;;;;;;;99.65;26.50;;;;;;;;;;4791618;29;20055;-40
2022/12/15 11:17:32;;;;;;;76.15;24.10;;;;;;;;;;4786988;29;20055;-42
2022/12/15 11:20:01;;;;;;;68.03;23.70;;;;;;;;;;4785321;29;20509;-42
2022/12/15 11:22:34;;;;;;;99.47;41.10;;;;;;;;;;4785044;29;20047;-42
2022/12/15 11:25:06;;;;;;;87.50;26.65;;;;;;;;;;4781915;29;20103;-42
2022/12/15 11:27:35;;;;;;;112.13;38.05;;;;;;;;;;4798856;29;20051;-42
2022/12/15 11:30:04;;;;;;;107.95;28.13;;;;;;;;;;4784763;29;20043;-41
2022/12/15 11:32:32;;;;;;;88.25;25.83;;;;;;;;;;4785535;29;20112;-41
2022/12/15 11:34:59;;;;;;;172.18;49.33;;;;;;;;;;4785576;29;20543;-41
2022/12/15 11:37:39;;;;;;;208.18;56.65;;;;;;;;;;4789585;29;20042;-41
2022/12/15 11:40:15;;;;;;;124.63;39.83;;;;;;;;;;4784755;29;20053;-42
2022/12/15 11:42:51;;;;;;;111.60;32.25;;;;;;;;;;4781707;29;20059;-42
2022/12/15 11:45:43;;;;;;;96.45;30.33;;;;;;;;;;4784437;29;20060;-41
2022/12/15 11:48:18;;;;;;;97.03;31.73;;;;;;;;;;4727824;30;20068;-44
2022/12/15 11:51:03;;;;;;;115.90;34.45;;;;;;;;;;4728851;30;20051;-41
2022/12/15 11:53:48;;;;;;;345.60;91.30;;;;;;;;;;4727075;30;20532;-42
2022/12/15 11:56:27;;;;;;;167.48;48.63;;;;;;;;;;4734369;30;20127;-43
2022/12/15 11:58:53;;;;;;;110.03;36.90;;;;;;;;;;4735718;30;20633;-49
2022/12/15 12:01:37;;;;;;;93.78;33.85;;;;;;;;;;4735106;30;20123;-41
2022/12/15 12:04:24;;;;;;;105.05;35.28;;;;;;;;;;4733377;30;20040;-41
2022/12/15 12:06:53;;;;;;;103.45;35.35;;;;;;;;;;4735096;30;20594;-46
2022/12/15 12:09:42;;;;;;;236.88;66.43;;;;;;;;;;4734612;30;20060;-44
2022/12/15 12:12:10;;;;;;;138.70;40.63;;;;;;;;;;4728294;30;20068;-41
2022/12/15 12:14:43;;;;;;;112.88;37.40;;;;;;;;;;4736775;30;20054;-41
2022/12/15 12:17:15;;;;;;;99.93;34.53;;;;;;;;;;4734341;30;20048;-44
2022/12/15 12:19:51;;;;;;;112.13;35.88;;;;;;;;;;4734597;30;20068;-41
2022/12/15 12:22:22;;;;;;;99.45;34.40;;;;;;;;;;4734700;30;20044;-46
2022/12/15 12:24:58;;;;;;;112.93;35.92;;;;;;;;;;4749189;30;20458;-41
2022/12/15 12:27:25;;;;;;;93.80;32.97;;;;;;;;;;4775631;30;20059;-41
2022/12/15 12:29:53;;;;;;;110.43;36.20;;;;;;;;;;4770626;30;20054;-42
2022/12/15 12:32:36;;;;;;;117.70;35.10;;;;;;;;;;4765906;30;20167;-44
2022/12/15 12:35:02;;;;;;;108.38;35.00;;;;;;;;;;4787276;29;20047;-42
2022/12/15 12:37:49;;;;;;;107.18;34.20;;;;;;;;;;4767185;30;20093;-42
2022/12/15 12:40:23;;;;;;;94.85;33.90;;;;;;;;;;4766120;30;20420;-43
2022/12/15 12:42:57;;;;;;;117.25;35.15;;;;;;;;;;4765960;30;20187;-41
2022/12/15 12:45:39;;;;;;;102.65;33.35;;;;;;;;;;4766128;30;20051;-42
2022/12/15 12:48:13;;;;;;;124.85;37.05;;;;;;;;;;4766514;30;20044;-41
2022/12/15 12:50:40;;;;;;;121.55;37.00;;;;;;;;;;4765728;30;20374;-40
2022/12/15 12:53:22;;;;;;;113.18;34.95;;;;;;;;;;4779005;30;20051;-41
2022/12/15 12:55:49;;;;;;;119.43;39.45;;;;;;;;;;4762894;30;20047;-40
2022/12/15 12:58:33;;;;;;;92.65;33.85;;;;;;;;;;4766020;30;20123;-40
2022/12/15 13:00:59;;;;;;;;;;;;;;;;;;4766612;30;20128;-41
2022/12/15 13:03:26;;;;;;;89.80;32.05;;;;;;;;;;4763142;30;19957;-40
2022/12/15 13:05:53;;;;;;;105.15;32.83;;;;;;;;;;4766211;30;20048;-40
2022/12/15 13:08:25;;;;;;;169.65;36.65;;;;;;;;;;4774542;29;20139;-41
2022/12/15 13:10:52;;;;;;;99.20;31.30;;;;;;;;;;4787672;29;20047;-46
2022/12/15 13:13:27;;;;;;;104.40;30.00;;;;;;;;;;4786275;29;20047;-41
2022/12/15 13:16:13;;;;;;;82.82;29.23;;;;;;;;;;4784998;29;20067;-40
2022/12/15 13:19:01;;;;;;;105.22;32.70;;;;;;;;;;4784033;29;20051;-40
2022/12/15 13:21:41;;;;;;;80.80;28.58;;;;;;;;;;4787236;29;20043;-41
2022/12/15 13:24:26;;;;;;;100.75;32.30;;;;;;;;;;4786363;29;20055;-40
2022/12/15 13:27:02;;;;;;;90.85;30.92;;;;;;;;;;4784958;30;20054;-41
2022/12/15 13:29:28;;;;;;;86.13;30.13;;;;;;;;;;4789091;29;20047;-40
2022/12/15 13:31:55;;;;;;;88.63;28.10;;;;;;;;;;4787090;29;20055;-40
2022/12/15 13:34:23;;;;;;;88.80;30.65;;;;;;;;;;4783432;29;20054;-40
2022/12/15 13:36:51;;;;;;;105.65;31.63;;;;;;;;;;4786949;29;20058;-41
2022/12/15 13:39:51;;;;;;;89.38;28.52;;;;;;;;;;4783564;29;20408;-40
2022/12/15 13:42:23;;;;;;;118.43;32.08;;;;;;;;;;4786995;29;20492;-41
2022/12/15 13:45:09;;;;;;;108.82;32.30;;;;;;;;;;4784346;29;20778;-46
2022/12/15 13:47:37;;;;;;;86.03;30.08;;;;;;;;;;4787166;30;20051;-52
2022/12/15 13:50:11;;;;;;;87.45;30.23;;;;;;;;;;4786770;29;20054;-41
2022/12/15 13:52:43;;;;;;;97.75;29.17;;;;;;;;;;4786426;29;20070;-40
2022/12/15 13:55:37;;;;;;;100.32;30.55;;;;;;;;;;4784800;29;20728;-42
2022/12/15 13:58:15;;;;;;;102.50;29.17;;;;;;;;;;4786182;29;20051;-43
2022/12/15 14:00:52;;;;;;;117.28;30.42;;;;;;;;;;4784010;29;20711;-40
2022/12/15 14:03:18;;;;;;;100.40;30.60;;;;;;;;;;4786672;29;20539;-40
2022/12/15 14:05:56;;;;;;;103.93;29.92;;;;;;;;;;4787057;30;20523;-40
2022/12/15 14:08:25;;;;;;;95.68;30.65;;;;;;;;;;4786895;29;20420;-40
2022/12/15 14:10:53;;;;;;;111.35;33.20;;;;;;;;;;4786179;29;20051;-40
2022/12/15 14:13:49;;;;;;;122.78;33.90;;;;;;;;;;4785758;29;20068;-40
2022/12/15 14:16:20;;;;;;;110.53;37.35;;;;;;;;;;4773540;29;20139;-40
2022/12/15 14:19:06;;;;;;;132.70;42.10;;;;;;;;;;4799630;29;20047;-40
2022/12/15 14:21:33;;;;;;;101.53;39.05;;;;;;;;;;4785335;29;20043;-41
2022/12/15 14:24:00;;;;;;;116.55;38.03;;;;;;;;;;4786601;29;20047;-40
2022/12/15 14:26:47;;;;;;;118.93;37.95;;;;;;;;;;4787002;29;20136;-40
2022/12/15 14:29:16;;;;;;;120.47;38.45;;;;;;;;;;4786050;29;20051;-40
2022/12/15 14:31:45;;;;;;;88.55;30.48;;;;;;;;;;4788241;29;20503;-40
2022/12/15 14:34:32;;;;;;;109.55;34.13;;;;;;;;;;4786256;29;20395;-40
2022/12/15 14:37:01;;;;;;;102.47;32.90;;;;;;;;;;4784736;29;20054;-40
2022/12/15 14:39:28;;;;;;;108.53;37.92;;;;;;;;;;4786089;29;20047;-40
2022/12/15 14:41:56;;;;;;;99.75;35.65;;;;;;;;;;4786380;30;20748;-40
2022/12/15 14:44:27;;;;;;;105.72;35.30;;;;;;;;;;4785867;29;20058;-41
2022/12/15 14:47:05;;;;;;;116.78;38.72;;;;;;;;;;4785254;29;20074;-40
2022/12/15 14:49:35;;;;;;;356.98;88.70;;;;;;;;;;4785706;29;20051;-40
2022/12/15 14:52:04;;;;;;;437.90;105.20;;;;;;;;;;4785847;29;20051;-40
2022/12/15 14:54:35;;;;;;;138.07;44.20;;;;;;;;;;4784800;29;20054;-41
2022/12/15 14:57:11;;;;;;;293.02;75.63;;;;;;;;;;4785417;29;20112;-40
2022/12/15 14:59:39;;;;;;;158.20;47.85;;;;;;;;;;4785877;30;20134;-40
2022/12/15 15:02:06;;;;;;;129.75;42.50;;;;;;;;;;4785475;29;20504;-41
2022/12/15 15:04:33;;;;;;;127.78;40.88;;;;;;;;;;4785108;29;20130;-40
2022/12/15 15:07:01;;;;;;;123.43;39.95;;;;;;;;;;4785127;29;20052;-41
2022/12/15 15:09:29;;;;;;;159.52;48.22;;;;;;;;;;4785229;29;20047;-40
2022/12/15 15:11:59;;;;;;;111.43;37.22;;;;;;;;;;4782581;29;20062;-40
2022/12/15 15:14:27;;;;;;;115.05;38.47;;;;;;;;;;4785559;29;20461;-41
2022/12/15 15:17:01;;;;;;;159.07;42.50;;;;;;;;;;4784824;29;20417;-40
2022/12/15 15:19:28;;;;;;;124.90;41.40;;;;;;;;;;4785611;29;20500;-50
2022/12/15 15:21:58;;;;;;;605.17;139.80;;;;;;;;;;4782177;29;20130;-42
2022/12/15 15:24:29;;;;;;;346.05;84.47;;;;;;;;;;4782712;29;20516;-41
2022/12/15 15:27:15;;;;;;;205.23;53.00;;;;;;;;;;4783989;30;20051;-40
2022/12/15 15:29:42;;;;;;;122.20;39.50;;;;;;;;;;4784600;30;20139;-42
2022/12/15 15:32:14;;;;;;;137.93;43.55;;;;;;;;;;4784439;29;20043;-41
2022/12/15 15:34:41;;;;;;;144.20;45.42;;;;;;;;;;4784873;29;20058;-42
2022/12/15 15:37:14;;;;;;;123.15;40.92;;;;;;;;;;4781487;29;20557;-41
2022/12/15 15:39:44;;;;;;;113.88;40.85;;;;;;;;;;4784807;29;20047;-40
2022/12/15 15:42:12;;;;;;;155.55;45.75;;;;;;;;;;4785011;29;20428;-42
2022/12/15 15:44:39;;;;;;;129.30;42.65;;;;;;;;;;4785320;30;20761;-40
2022/12/15 15:47:06;;;;;;;141.35;47.03;;;;;;;;;;4785465;29;20119;-40
2022/12/15 15:49:32;;;;;;;120.75;42.70;;;;;;;;;;4784895;29;20047;-40
2022/12/15 15:52:05;;;;;;;112.05;41.30;;;;;;;;;;4784611;29;20583;-44
2022/12/15 15:54:33;;;;;;;121.22;41.45;;;;;;;;;;4784519;29;20047;-41
2022/12/15 15:57:00;;;;;;;128.27;41.85;;;;;;;;;;4784774;29;20047;-41
2022/12/15 15:59:27;;;;;;;118.70;43.15;;;;;;;;;;4784826;29;20051;-40
2022/12/15 16:01:54;;;;;;;109.72;39.40;;;;;;;;;;4782372;29;20077;-40
2022/12/15 16:04:22;;;;;;;88.20;30.60;;;;;;;;;;4784855;29;20421;-40
2022/12/15 16:06:49;;;;;;;109.85;31.10;;;;;;;;;;4784180;29;20046;-40
2022/12/15 16:09:16;;;;;;;94.63;28.77;;;;;;;;;;4784374;29;20081;-41
2022/12/15 16:11:43;;;;;;;79.85;27.67;;;;;;;;;;4785227;30;20134;-41
2022/12/15 16:14:11;;;;;;;86.65;30.13;;;;;;;;;;4783920;29;20039;-40
2022/12/15 16:16:38;;;;;;;106.32;33.10;;;;;;;;;;4780940;29;20051;-41
2022/12/15 16:19:04;;;;;;;92.20;30.48;;;;;;;;;;4784167;29;20047;-41
2022/12/15 16:21:31;;;;;;;107.53;30.55;;;;;;;;;;4783566;29;20051;-41
2022/12/15 16:23:58;;;;;;;74.50;25.98;;;;;;;;;;4787663;29;20059;-40
2022/12/15 16:26:26;;;;;;;91.75;30.25;;;;;;;;;;4784338;29;20051;-41
2022/12/15 16:28:53;;;;;;;105.93;30.25;;;;;;;;;;4783654;29;20061;-40
2022/12/15 16:31:36;;;;;;;88.80;30.25;;;;;;;;;;4784193;29;20051;-40
2022/12/15 16:34:07;;;;;;;94.53;29.25;;;;;;;;;;4783110;29;20047;-50
2022/12/15 16:36:34;;;;;;;95.05;31.65;;;;;;;;;;4784100;29;20051;-41
2022/12/15 16:39:00;;;;;;;123.43;36.05;;;;;;;;;;4783703;29;20150;-47
2022/12/15 16:41:27;;;;;;;119.57;36.10;;;;;;;;;;4784725;29;20066;-40
2022/12/15 16:43:54;;;;;;;109.43;33.75;;;;;;;;;;4783517;29;20527;-40
2022/12/15 16:46:20;;;;;;;110.82;35.53;;;;;;;;;;4784325;29;20048;-41
2022/12/15 16:48:47;;;;;;;123.70;36.50;;;;;;;;;;4783831;29;20057;-40
2022/12/15 16:51:29;;;;;;;141.38;38.30;;;;;;;;;;4783612;29;20054;-41